Time;durP1;ratioP1;P1;durP2;ratioP2;P2;SDS_P1;SDS_P2;PMS_P1;PMS_P2;Temp;Humidity;BMP_temperature;BMP_pressure;BME280_temperature;BME280_humidity;BME280_pressure;Samples;Min_cycle;Max_cycle;Signal;HPM_P1;HPM_P2
2022/01/29 00:02:16;;;;;;;39.80;25.97;;;8.50;99.90;;;;;;5050349;28;20641;-25
2022/01/29 00:04:43;;;;;;;39.23;26.23;;;8.60;99.90;;;;;;5050541;28;20555;-25
2022/01/29 00:07:10;;;;;;;39.70;27.13;;;8.60;99.90;;;;;;5050899;28;20204;-25
2022/01/29 00:09:38;;;;;;;37.90;26.13;;;8.60;99.90;;;;;;5050486;28;20694;-25
2022/01/29 00:12:06;;;;;;;43.17;25.40;;;8.60;99.90;;;;;;5049546;28;20196;-25
2022/01/29 00:14:35;;;;;;;36.47;24.70;;;8.50;99.90;;;;;;5049468;28;20315;-25
2022/01/29 00:17:03;;;;;;;38.07;23.73;;;8.60;99.90;;;;;;5050548;28;20668;-25
2022/01/29 00:19:31;;;;;;;37.57;24.07;;;8.60;99.90;;;;;;5050430;28;20208;-25
2022/01/29 00:22:03;;;;;;;36.50;24.63;;;8.60;99.90;;;;;;5048451;28;20290;-25
2022/01/29 00:24:32;;;;;;;34.90;24.17;;;8.60;99.90;;;;;;5049635;28;20224;-26
2022/01/29 00:27:08;;;;;;;37.97;24.73;;;8.60;99.90;;;;;;5050395;28;20215;-25
2022/01/29 00:29:38;;;;;;;40.00;24.73;;;8.50;99.90;;;;;;5048826;28;20640;-25
2022/01/29 00:32:10;;;;;;;36.00;23.37;;;8.50;99.90;;;;;;5050485;28;20215;-25
2022/01/29 00:34:39;;;;;;;37.53;23.43;;;8.50;99.90;;;;;;5048530;28;20561;-25
2022/01/29 00:37:07;;;;;;;38.07;24.23;;;8.50;99.90;;;;;;5050350;28;20699;-25
2022/01/29 00:39:35;;;;;;;34.10;23.23;;;8.50;99.90;;;;;;5048022;28;20299;-25
2022/01/29 00:42:04;;;;;;;35.07;22.77;;;8.50;99.90;;;;;;5049848;28;20200;-25
2022/01/29 00:44:49;;;;;;;35.90;22.57;;;8.50;99.90;;;;;;5048769;28;20690;-25
2022/01/29 00:47:19;;;;;;;40.60;23.40;;;8.50;99.90;;;;;;5050108;28;20196;-25
2022/01/29 00:49:48;;;;;;;36.87;23.67;;;8.50;99.90;;;;;;5050196;28;20681;-25
2022/01/29 00:52:16;;;;;;;37.30;22.90;;;8.50;99.90;;;;;;5048404;28;20260;-25
2022/01/29 00:54:45;;;;;;;38.27;23.70;;;8.50;99.90;;;;;;5050010;28;20595;-25
2022/01/29 00:57:14;;;;;;;35.23;22.73;;;8.50;99.90;;;;;;5049896;28;20311;-25
2022/01/29 00:59:42;;;;;;;35.80;21.63;;;8.50;99.90;;;;;;5043895;28;20215;-25
2022/01/29 01:02:09;;;;;;;32.77;21.33;;;8.50;99.90;;;;;;5030228;28;20296;-25
2022/01/29 01:04:38;;;;;;;33.67;21.10;;;8.50;99.90;;;;;;5047801;28;20583;-25
2022/01/29 01:07:08;;;;;;;33.40;20.43;;;8.50;99.90;;;;;;5048312;28;20277;-25
2022/01/29 01:09:38;;;;;;;36.10;21.97;;;8.50;99.90;;;;;;5049256;28;20200;-25
2022/01/29 01:12:09;;;;;;;33.10;21.33;;;8.60;99.90;;;;;;5049751;28;20231;-25
2022/01/29 01:14:37;;;;;;;32.37;20.70;;;8.60;99.90;;;;;;5048030;28;20752;-25
2022/01/29 01:17:04;;;;;;;32.77;21.13;;;8.60;99.90;;;;;;5049497;28;20189;-25
2022/01/29 01:19:36;;;;;;;32.30;20.57;;;8.60;99.90;;;;;;5047557;28;20216;-25
2022/01/29 01:22:04;;;;;;;30.13;19.40;;;8.60;99.90;;;;;;5049404;28;20197;-25
2022/01/29 01:24:32;;;;;;;31.73;20.83;;;8.60;99.90;;;;;;5049364;28;20200;-25
2022/01/29 01:26:59;;;;;;;31.87;20.13;;;8.60;99.90;;;;;;5048964;28;20322;-25
2022/01/29 01:29:27;;;;;;;33.63;20.13;;;8.60;99.90;;;;;;5048566;28;20222;-25
2022/01/29 01:31:56;;;;;;;31.87;19.93;;;8.60;99.90;;;;;;5048242;28;20204;-25
2022/01/29 01:34:26;;;;;;;33.27;20.17;;;8.60;99.90;;;;;;5048782;28;20230;-25
2022/01/29 01:36:59;;;;;;;32.70;20.10;;;8.70;99.90;;;;;;5048803;28;20678;-25
2022/01/29 01:39:31;;;;;;;34.80;21.10;;;8.70;99.90;;;;;;5049063;28;20216;-25
2022/01/29 01:42:08;;;;;;;31.10;19.87;;;8.70;99.90;;;;;;5049058;28;20722;-25
2022/01/29 01:44:38;;;;;;;34.47;20.13;;;8.70;99.90;;;;;;5046605;28;20576;-25
2022/01/29 01:47:05;;;;;;;29.70;19.53;;;8.70;99.90;;;;;;5048852;28;20234;-25
2022/01/29 01:49:38;;;;;;;33.27;20.67;;;8.70;99.90;;;;;;5046780;28;20208;-25
2022/01/29 01:52:09;;;;;;;34.33;20.07;;;8.70;99.90;;;;;;5049138;28;20232;-25
2022/01/29 01:54:38;;;;;;;31.93;19.80;;;8.70;99.90;;;;;;5048671;28;20244;-25
2022/01/29 01:57:06;;;;;;;34.33;19.87;;;8.70;99.90;;;;;;5048646;28;20638;-25
2022/01/29 01:59:34;;;;;;;31.27;19.57;;;8.70;99.90;;;;;;5046792;28;20196;-25
2022/01/29 02:02:01;;;;;;;32.03;19.70;;;8.70;99.90;;;;;;5048431;28;20218;-25
2022/01/29 02:04:30;;;;;;;30.57;18.80;;;8.70;99.90;;;;;;5048223;28;20216;-25
2022/01/29 02:07:01;;;;;;;33.53;20.60;;;8.70;99.90;;;;;;5048496;28;20207;-25
2022/01/29 02:09:32;;;;;;;30.43;19.27;;;8.70;99.90;;;;;;5063151;28;20303;-25
2022/01/29 02:12:03;;;;;;;35.80;20.57;;;8.80;99.90;;;;;;5048098;28;20303;-25
2022/01/29 02:14:33;;;;;;;31.20;19.93;;;8.80;99.90;;;;;;5047453;28;20847;-24
2022/01/29 02:17:04;;;;;;;30.50;19.43;;;8.80;99.90;;;;;;5048154;28;20599;-23
2022/01/29 02:19:36;;;;;;;29.30;19.37;;;8.80;99.90;;;;;;5063089;28;20691;-24
2022/01/29 02:22:09;;;;;;;29.73;19.13;;;8.80;99.90;;;;;;5048002;28;20701;-24
2022/01/29 02:24:37;;;;;;;33.03;20.70;;;8.80;99.90;;;;;;5063055;28;20196;-24
2022/01/29 02:27:04;;;;;;;28.73;18.97;;;8.80;99.90;;;;;;5048052;28;20789;-23
2022/01/29 02:29:35;;;;;;;31.37;19.53;;;8.80;99.90;;;;;;5046689;28;20206;-23
2022/01/29 02:32:03;;;;;;;32.10;19.63;;;8.80;99.90;;;;;;5047802;28;20623;-23
2022/01/29 02:34:33;;;;;;;29.37;20.37;;;8.80;99.90;;;;;;5047567;28;20306;-24
2022/01/29 02:37:01;;;;;;;26.93;19.17;;;8.80;99.90;;;;;;5048009;28;20753;-23
2022/01/29 02:39:30;;;;;;;28.53;18.93;;;8.80;99.90;;;;;;5047743;28;20209;-24
2022/01/29 02:42:00;;;;;;;25.97;18.97;;;8.80;99.90;;;;;;5048250;28;20210;-24
2022/01/29 02:44:27;;;;;;;28.23;18.90;;;8.80;99.90;;;;;;5047639;28;20721;-24
2022/01/29 02:46:57;;;;;;;28.37;18.63;;;8.80;99.90;;;;;;5047005;28;20716;-24
2022/01/29 02:49:26;;;;;;;23.37;17.27;;;8.80;99.90;;;;;;5048057;28;20291;-24
2022/01/29 02:51:55;;;;;;;25.67;17.77;;;8.80;99.90;;;;;;5047574;28;20263;-24
2022/01/29 02:54:26;;;;;;;24.27;17.53;;;8.80;99.90;;;;;;5047332;28;20234;-24
2022/01/29 02:56:53;;;;;;;23.03;16.70;;;8.80;99.90;;;;;;5046348;28;20241;-24
2022/01/29 02:59:21;;;;;;;22.77;16.70;;;8.80;99.90;;;;;;5047217;28;20200;-23
2022/01/29 03:01:48;;;;;;;20.53;15.70;;;8.80;99.90;;;;;;5030594;28;20224;-24
2022/01/29 03:04:21;;;;;;;22.30;16.27;;;8.80;99.90;;;;;;5027865;28;20197;-23
2022/01/29 03:06:48;;;;;;;21.17;15.07;;;8.80;99.90;;;;;;5028093;28;20201;-23
2022/01/29 03:09:18;;;;;;;21.30;15.90;;;8.80;99.90;;;;;;5027789;28;20221;-24
2022/01/29 03:11:48;;;;;;;20.50;14.17;;;8.80;99.90;;;;;;5027443;28;20244;-24
2022/01/29 03:14:18;;;;;;;19.73;14.30;;;8.80;99.90;;;;;;5026918;28;20247;-23
2022/01/29 03:16:48;;;;;;;22.27;15.07;;;8.80;99.90;;;;;;5027240;28;20206;-23
2022/01/29 03:19:15;;;;;;;18.50;13.30;;;8.90;99.90;;;;;;5027779;28;20657;-23
2022/01/29 03:21:42;;;;;;;18.10;13.17;;;8.90;99.90;;;;;;5027496;28;20193;-24
2022/01/29 03:24:10;;;;;;;20.77;14.63;;;8.90;99.90;;;;;;5027661;28;20291;-24
2022/01/29 03:26:39;;;;;;;18.47;13.70;;;8.90;99.90;;;;;;5027550;28;20300;-24
2022/01/29 03:29:06;;;;;;;17.90;13.37;;;8.90;99.90;;;;;;5027193;28;20224;-23
2022/01/29 03:31:34;;;;;;;17.40;13.13;;;8.90;99.90;;;;;;5027018;28;20260;-24
2022/01/29 03:34:01;;;;;;;16.90;12.73;;;8.90;99.90;;;;;;5025583;28;20714;-24
2022/01/29 03:36:28;;;;;;;18.43;13.90;;;9.00;99.90;;;;;;5027883;28;20644;-24
2022/01/29 03:38:56;;;;;;;16.77;12.80;;;9.00;99.90;;;;;;5026116;28;20201;-23
2022/01/29 03:41:25;;;;;;;16.03;12.63;;;9.00;99.90;;;;;;5027320;28;20821;-23
2022/01/29 03:44:00;;;;;;;16.13;12.50;;;9.00;99.90;;;;;;5027644;28;20258;-24
2022/01/29 03:46:28;;;;;;;16.80;12.13;;;9.00;99.90;;;;;;5026502;28;20475;-23
2022/01/29 03:48:57;;;;;;;14.97;11.87;;;9.00;99.90;;;;;;5027558;28;20205;-23
2022/01/29 03:51:27;;;;;;;16.37;11.53;;;9.10;99.90;;;;;;5026971;28;20243;-24
2022/01/29 03:53:54;;;;;;;13.70;11.07;;;9.10;99.90;;;;;;5026801;28;20229;-23
2022/01/29 03:56:23;;;;;;;12.73;11.03;;;9.10;99.90;;;;;;5027505;28;20193;-23
2022/01/29 03:58:51;;;;;;;12.63;10.17;;;9.10;99.90;;;;;;5028936;28;20205;-24
2022/01/29 04:01:18;;;;;;;14.10;10.17;;;9.10;99.90;;;;;;5029644;28;20656;-23
2022/01/29 04:03:48;;;;;;;12.33;9.93;;;9.10;99.90;;;;;;5030888;28;20424;-23
2022/01/29 04:06:18;;;;;;;12.20;9.90;;;9.20;99.90;;;;;;5030640;28;20684;-24
2022/01/29 04:08:45;;;;;;;11.40;9.57;;;9.20;99.90;;;;;;5031058;28;20197;-23
2022/01/29 04:11:14;;;;;;;12.23;9.43;;;9.30;99.90;;;;;;5030655;28;20228;-23
2022/01/29 04:13:47;;;;;;;10.43;8.13;;;9.30;99.90;;;;;;5030785;28;20287;-23
2022/01/29 04:16:17;;;;;;;11.87;7.63;;;9.30;99.90;;;;;;5029405;28;20204;-25
2022/01/29 04:18:47;;;;;;;9.47;7.90;;;9.30;99.90;;;;;;5030597;28;20201;-25
2022/01/29 04:21:23;;;;;;;10.43;7.80;;;9.40;99.90;;;;;;5028897;28;20215;-25
2022/01/29 04:23:51;;;;;;;9.87;8.07;;;9.40;99.90;;;;;;5030567;28;20201;-25
2022/01/29 04:26:18;;;;;;;9.60;8.10;;;9.40;99.90;;;;;;5030368;28;20196;-25
2022/01/29 04:28:46;;;;;;;9.47;7.90;;;9.50;99.90;;;;;;5030536;28;20205;-25
2022/01/29 04:31:18;;;;;;;10.87;8.27;;;9.50;99.90;;;;;;5027567;28;20209;-25
2022/01/29 04:33:48;;;;;;;11.30;8.33;;;9.50;99.90;;;;;;5030285;28;20236;-25
2022/01/29 04:36:15;;;;;;;9.90;8.10;;;9.60;99.90;;;;;;5030085;28;20686;-25
2022/01/29 04:38:42;;;;;;;9.77;7.87;;;9.60;99.90;;;;;;5029600;28;20213;-25
2022/01/29 04:41:10;;;;;;;9.30;7.80;;;9.60;99.90;;;;;;5029931;28;20201;-25
2022/01/29 04:43:37;;;;;;;9.07;7.90;;;9.60;99.90;;;;;;5030317;28;20204;-25
2022/01/29 04:46:07;;;;;;;9.60;7.87;;;9.70;99.90;;;;;;5029212;28;20248;-25
2022/01/29 04:48:37;;;;;;;9.53;7.93;;;9.70;99.90;;;;;;5028754;28;20299;-25
2022/01/29 04:51:04;;;;;;;8.97;7.83;;;9.70;99.90;;;;;;5029722;28;20596;-25
2022/01/29 04:53:31;;;;;;;8.80;7.30;;;9.70;99.90;;;;;;5030028;28;20224;-25
2022/01/29 04:55:59;;;;;;;8.33;6.93;;;9.70;99.90;;;;;;5030006;28;20289;-25
2022/01/29 04:58:28;;;;;;;8.03;6.97;;;9.70;99.90;;;;;;5029801;28;20204;-25
2022/01/29 05:00:55;;;;;;;8.50;7.20;;;9.70;99.90;;;;;;5028303;28;20204;-25
2022/01/29 05:03:31;;;;;;;8.30;7.00;;;9.80;99.90;;;;;;5020648;28;20217;-25
2022/01/29 05:06:09;;;;;;;8.23;6.90;;;9.80;99.90;;;;;;5009700;28;20227;-25
2022/01/29 05:08:37;;;;;;;7.67;6.20;;;9.80;99.90;;;;;;5009806;28;20197;-25
2022/01/29 05:11:08;;;;;;;8.70;7.40;;;9.80;99.90;;;;;;5017068;28;20310;-25
2022/01/29 05:13:38;;;;;;;7.80;6.80;;;9.90;99.90;;;;;;5028298;28;20307;-25
2022/01/29 05:27:02;;;;;;;8.83;7.40;;;9.90;99.90;;;;;;5029594;28;20239;-25
2022/01/29 05:29:31;;;;;;;9.40;7.83;;;10.00;99.90;;;;;;5028544;28;20704;-25
2022/01/29 05:32:00;;;;;;;9.40;7.90;;;10.00;99.90;;;;;;5027694;28;20208;-25
2022/01/29 05:34:29;;;;;;;9.87;8.00;;;10.00;99.90;;;;;;5028979;28;20290;-25
2022/01/29 05:37:00;;;;;;;9.37;8.27;;;10.00;99.90;;;;;;5029114;28;20209;-25
2022/01/29 05:39:28;;;;;;;9.07;7.70;;;10.00;99.90;;;;;;5028944;28;20584;-25
2022/01/29 05:41:56;;;;;;;10.10;8.07;;;10.00;99.90;;;;;;5028961;28;20635;-25
2022/01/29 05:44:29;;;;;;;9.40;7.80;;;10.00;99.90;;;;;;5028834;28;20204;-25
2022/01/29 05:46:58;;;;;;;9.23;8.27;;;10.10;99.90;;;;;;5027638;28;20240;-25
2022/01/29 05:49:28;;;;;;;10.77;8.60;;;10.10;99.90;;;;;;5028863;28;20205;-25
2022/01/29 05:51:55;;;;;;;8.17;7.37;;;10.10;99.90;;;;;;5028578;28;20236;-23
2022/01/29 05:54:25;;;;;;;10.13;8.47;;;10.10;99.90;;;;;;5028420;28;20274;-23
2022/01/29 05:56:52;;;;;;;9.33;7.50;;;10.10;99.90;;;;;;5028846;28;20209;-23
2022/01/29 05:59:22;;;;;;;10.33;8.40;;;10.20;99.90;;;;;;5027158;28;20205;-23
2022/01/29 06:01:49;;;;;;;10.37;7.47;;;10.20;99.90;;;;;;5023168;28;20237;-23
2022/01/29 06:04:16;;;;;;;9.97;8.30;;;10.20;99.90;;;;;;5022981;28;20682;-23
2022/01/29 06:06:46;;;;;;;11.20;8.40;;;10.20;99.90;;;;;;5023151;28;20647;-23
2022/01/29 06:09:13;;;;;;;10.40;8.47;;;10.20;99.90;;;;;;5023319;28;20213;-23
2022/01/29 06:11:45;;;;;;;10.80;8.90;;;10.20;99.90;;;;;;5022846;28;20209;-23
2022/01/29 06:14:17;;;;;;;10.40;8.37;;;10.30;99.90;;;;;;5024687;28;20270;-23
2022/01/29 06:16:44;;;;;;;10.63;8.70;;;10.30;99.90;;;;;;5026156;28;20211;-23
2022/01/29 06:19:14;;;;;;;10.27;7.93;;;10.30;99.90;;;;;;5026288;28;20766;-23
2022/01/29 06:21:42;;;;;;;11.60;7.90;;;10.30;99.90;;;;;;5027605;28;20219;-23
2022/01/29 06:24:09;;;;;;;10.73;7.90;;;10.30;99.90;;;;;;5026905;28;20213;-23
2022/01/29 06:26:36;;;;;;;11.13;8.43;;;10.30;99.90;;;;;;5028146;28;20205;-23
2022/01/29 06:29:05;;;;;;;9.43;8.00;;;10.40;99.90;;;;;;5026724;28;20786;-23
2022/01/29 06:31:35;;;;;;;9.60;7.57;;;10.40;99.90;;;;;;5019657;28;20201;-23
2022/01/29 06:34:03;;;;;;;11.30;7.93;;;10.40;99.90;;;;;;5022697;28;20201;-23
2022/01/29 06:36:32;;;;;;;9.23;8.30;;;10.40;99.90;;;;;;5026381;28;20216;-23
2022/01/29 06:38:59;;;;;;;9.30;7.97;;;10.40;99.90;;;;;;5027259;28;20217;-23
2022/01/29 06:41:29;;;;;;;10.60;8.40;;;10.40;99.90;;;;;;5027852;28;20695;-23
2022/01/29 06:43:56;;;;;;;11.87;8.40;;;10.40;99.90;;;;;;5025941;28;20217;-23
2022/01/29 06:46:26;;;;;;;9.83;8.77;;;10.40;99.90;;;;;;5024241;28;20556;-23
2022/01/29 06:48:54;;;;;;;9.30;7.80;;;10.40;99.90;;;;;;5028382;28;20209;-23
2022/01/29 06:51:21;;;;;;;12.77;8.37;;;10.50;99.90;;;;;;5027595;28;20244;-23
2022/01/29 06:53:48;;;;;;;8.87;7.97;;;10.50;99.90;;;;;;5027776;28;20249;-23
2022/01/29 06:56:25;;;;;;;8.57;7.67;;;10.50;99.90;;;;;;5025816;28;20841;-23
2022/01/29 06:58:52;;;;;;;8.70;7.80;;;10.50;99.90;;;;;;5028852;28;20200;-24
2022/01/29 07:01:39;;;;;;;11.10;8.17;;;10.50;99.90;;;;;;5022419;28;20213;-24
2022/01/29 07:04:09;;;;;;;10.63;8.10;;;10.50;99.90;;;;;;5040034;28;20395;-26
2022/01/29 07:06:36;;;;;;;10.57;8.17;;;10.50;99.90;;;;;;5027218;28;20255;-25
2022/01/29 07:09:08;;;;;;;9.17;8.03;;;10.60;99.90;;;;;;5027772;28;20232;-25
2022/01/29 07:11:36;;;;;;;9.83;7.90;;;10.60;99.90;;;;;;5025349;28;20213;-26
2022/01/29 07:14:05;;;;;;;9.57;8.20;;;10.60;99.90;;;;;;5026018;28;20662;-27
2022/01/29 07:16:36;;;;;;;9.00;7.83;;;10.60;99.90;;;;;;5027031;28;20227;-26
2022/01/29 07:19:06;;;;;;;9.53;7.47;;;10.60;99.90;;;;;;5021916;28;20266;-26
2022/01/29 07:21:33;;;;;;;10.83;7.80;;;10.60;99.90;;;;;;5026351;28;20624;-24
2022/01/29 07:24:03;;;;;;;9.30;7.83;;;10.60;99.90;;;;;;5027361;28;20201;-24
2022/01/29 07:26:33;;;;;;;10.17;7.50;;;10.60;99.90;;;;;;5040401;28;20555;-24
2022/01/29 07:29:05;;;;;;;9.27;8.07;;;10.70;99.90;;;;;;5025972;28;20227;-24
2022/01/29 07:31:33;;;;;;;10.27;8.13;;;10.70;99.90;;;;;;5026486;28;20201;-24
2022/01/29 07:34:02;;;;;;;10.63;7.83;;;10.70;99.90;;;;;;5014691;28;20645;-24
2022/01/29 07:36:33;;;;;;;10.30;8.77;;;10.80;99.90;;;;;;5016584;28;20243;-24
2022/01/29 07:39:03;;;;;;;13.37;8.80;;;10.80;99.90;;;;;;5031272;28;20686;-24
2022/01/29 07:41:31;;;;;;;10.40;8.60;;;10.80;99.90;;;;;;5029353;28;20201;-23
2022/01/29 07:43:58;;;;;;;9.93;8.87;;;10.80;99.90;;;;;;5031264;28;20671;-22
2022/01/29 07:46:28;;;;;;;11.03;8.43;;;10.80;99.90;;;;;;5028849;28;20623;-23
2022/01/29 07:48:57;;;;;;;10.90;9.17;;;10.90;99.90;;;;;;5030265;28;20667;-22
2022/01/29 07:51:27;;;;;;;12.43;9.50;;;10.90;99.90;;;;;;5029976;28;20233;-22
2022/01/29 07:53:54;;;;;;;10.03;7.60;;;10.90;99.90;;;;;;5030285;28;20225;-22
2022/01/29 07:56:24;;;;;;;10.50;8.30;;;10.90;99.90;;;;;;5030538;28;20747;-22
2022/01/29 07:58:52;;;;;;;10.57;8.80;;;10.90;99.90;;;;;;5031288;28;20254;-24
2022/01/29 08:01:22;;;;;;;10.53;9.03;;;11.00;99.90;;;;;;5028891;28;20216;-25
2022/01/29 08:03:51;;;;;;;11.33;9.60;;;11.00;99.90;;;;;;5030487;28;20215;-24
2022/01/29 08:06:19;;;;;;;9.90;8.17;;;11.00;99.90;;;;;;5028813;28;20205;-24
2022/01/29 08:08:46;;;;;;;9.07;7.77;;;11.00;99.90;;;;;;5031140;28;20232;-24
2022/01/29 08:11:13;;;;;;;10.00;8.00;;;11.00;99.90;;;;;;5030305;28;20217;-24
2022/01/29 08:13:46;;;;;;;10.00;8.20;;;11.00;99.90;;;;;;5030604;28;20209;-27
2022/01/29 08:16:14;;;;;;;9.87;8.47;;;11.10;99.90;;;;;;5029303;28;20419;-24
2022/01/29 08:18:43;;;;;;;8.13;7.33;;;11.10;99.90;;;;;;5030673;28;20703;-24
2022/01/29 08:21:15;;;;;;;10.60;8.57;;;11.10;99.90;;;;;;5028608;28;20203;-24
2022/01/29 08:23:47;;;;;;;8.10;7.17;;;11.10;99.90;;;;;;5030644;28;20581;-24
2022/01/29 08:26:17;;;;;;;8.80;7.67;;;11.10;99.90;;;;;;5029942;28;20213;-24
2022/01/29 08:28:44;;;;;;;8.87;6.87;;;11.20;99.90;;;;;;5029374;28;20666;-24
2022/01/29 08:31:12;;;;;;;8.37;6.47;;;11.20;99.90;;;;;;5019198;28;20347;-24
2022/01/29 08:33:39;;;;;;;7.73;6.27;;;11.20;99.90;;;;;;5028448;28;20208;-24
2022/01/29 08:36:08;;;;;;;7.13;6.43;;;11.20;99.90;;;;;;5028260;28;20298;-24
2022/01/29 08:38:36;;;;;;;7.33;6.33;;;11.30;99.90;;;;;;5030093;28;20205;-24
2022/01/29 08:41:04;;;;;;;7.23;6.03;;;11.30;99.90;;;;;;5029595;28;20224;-24
2022/01/29 08:43:34;;;;;;;7.30;5.80;;;11.30;99.90;;;;;;5030063;28;20259;-24
2022/01/29 08:46:01;;;;;;;5.90;4.50;;;11.30;99.90;;;;;;5028114;28;20216;-24
2022/01/29 08:48:31;;;;;;;5.87;5.03;;;11.30;99.90;;;;;;5030196;28;20765;-24
2022/01/29 08:50:58;;;;;;;5.30;4.80;;;11.40;99.90;;;;;;5029502;28;20320;-24
2022/01/29 08:53:26;;;;;;;6.43;5.47;;;11.40;99.90;;;;;;5027070;28;20643;-24
2022/01/29 08:55:53;;;;;;;6.30;5.10;;;11.50;99.90;;;;;;5027757;28;20216;-24
2022/01/29 08:58:21;;;;;;;5.03;4.50;;;11.50;99.90;;;;;;5028698;28;20204;-24
2022/01/29 09:00:50;;;;;;;5.97;4.70;;;11.50;99.90;;;;;;5028449;28;20197;-24
2022/01/29 09:03:20;;;;;;;4.23;3.83;;;11.50;99.90;;;;;;5028775;28;20201;-24
2022/01/29 09:05:48;;;;;;;4.90;4.20;;;11.60;99.90;;;;;;5028775;28;20339;-24
2022/01/29 09:08:17;;;;;;;5.13;4.10;;;11.60;99.90;;;;;;5027718;28;20208;-24
2022/01/29 09:10:46;;;;;;;5.00;4.43;;;11.60;99.90;;;;;;5009427;28;20672;-24
2022/01/29 09:13:16;;;;;;;4.20;3.37;;;11.60;99.90;;;;;;5023894;28;20204;-24
2022/01/29 09:15:48;;;;;;;3.23;2.93;;;11.70;99.90;;;;;;5027486;28;20668;-22
2022/01/29 09:18:17;;;;;;;3.20;2.90;;;11.70;99.90;;;;;;5029456;28;20255;-23
2022/01/29 09:20:46;;;;;;;3.80;2.87;;;11.70;99.90;;;;;;5029143;28;20184;-22
2022/01/29 09:23:16;;;;;;;3.73;2.80;;;11.70;99.90;;;;;;5029029;28;20205;-22
2022/01/29 09:25:44;;;;;;;3.43;2.80;;;11.70;99.90;;;;;;5028784;28;20540;-22
2022/01/29 09:28:13;;;;;;;2.83;2.60;;;11.70;99.90;;;;;;5027570;28;20239;-23
2022/01/29 09:30:44;;;;;;;2.90;2.70;;;11.70;99.90;;;;;;5027111;28;20302;-22
2022/01/29 09:33:16;;;;;;;3.33;2.67;;;11.70;99.90;;;;;;5043187;28;20226;-22
2022/01/29 09:35:45;;;;;;;2.80;2.50;;;11.70;99.90;;;;;;5028257;28;20258;-23
2022/01/29 09:38:14;;;;;;;2.93;2.73;;;11.70;99.90;;;;;;5027638;28;20239;-22
2022/01/29 09:40:42;;;;;;;2.97;2.67;;;11.70;99.90;;;;;;5028443;28;20229;-23
2022/01/29 09:43:12;;;;;;;3.73;2.77;;;11.70;99.90;;;;;;5028557;28;20209;-22
2022/01/29 09:45:40;;;;;;;3.67;2.90;;;11.70;99.90;;;;;;5027272;28;20209;-23
2022/01/29 09:48:12;;;;;;;3.27;2.97;;;11.70;99.90;;;;;;5029015;28;20209;-22
2022/01/29 09:50:41;;;;;;;4.20;3.27;;;11.70;99.90;;;;;;5027459;28;20662;-23
2022/01/29 09:53:09;;;;;;;3.87;3.00;;;11.70;99.90;;;;;;5027955;28;20351;-22
2022/01/29 09:55:38;;;;;;;3.37;3.07;;;11.70;99.90;;;;;;5026760;28;21087;-22
2022/01/29 09:58:05;;;;;;;4.00;3.40;;;11.70;99.90;;;;;;5028119;28;20251;-23
2022/01/29 10:00:35;;;;;;;4.03;3.63;;;11.70;99.90;;;;;;5026854;28;20212;-22
2022/01/29 10:03:21;;;;;;;3.97;3.47;;;11.70;99.90;;;;;;5028420;28;20200;-23
2022/01/29 10:05:56;;;;;;;4.47;3.57;;;11.70;99.90;;;;;;5026803;28;20201;-23
2022/01/29 10:08:24;;;;;;;4.83;3.87;;;11.80;99.90;;;;;;5028256;28;20292;-22
2022/01/29 10:10:56;;;;;;;6.23;4.50;;;11.80;99.90;;;;;;5027744;28;20207;-22
2022/01/29 10:13:32;;;;;;;5.60;4.10;;;11.80;99.90;;;;;;5028240;28;20205;-22
2022/01/29 10:16:19;;;;;;;3.70;3.20;;;11.80;99.90;;;;;;5024260;28;20216;-22
2022/01/29 10:19:11;;;;;;;3.23;2.90;;;11.90;99.90;;;;;;5026553;28;20201;-22
2022/01/29 10:21:47;;;;;;;4.20;3.17;;;11.90;99.90;;;;;;5027863;28;20197;-22
2022/01/29 10:24:17;;;;;;;5.43;3.33;;;11.90;99.90;;;;;;5026773;28;20331;-22
2022/01/29 10:26:47;;;;;;;4.33;3.30;;;11.90;99.90;;;;;;5027308;28;20649;-23
2022/01/29 10:29:19;;;;;;;5.17;3.50;;;12.00;99.90;;;;;;5025150;28;20200;-22
2022/01/29 10:31:58;;;;;;;4.03;2.93;;;12.00;99.90;;;;;;5038349;28;20212;-22
2022/01/29 10:34:33;;;;;;;4.47;3.17;;;12.10;99.90;;;;;;5034630;28;20211;-23
2022/01/29 10:37:21;;;;;;;2.87;2.60;;;12.10;99.90;;;;;;5018702;28;20692;-22
2022/01/29 10:39:52;;;;;;;3.73;2.87;;;12.10;99.90;;;;;;5008051;28;20189;-23
2022/01/29 10:42:37;;;;;;;3.13;2.70;;;12.10;99.90;;;;;;5012214;28;20214;-22
2022/01/29 10:45:06;;;;;;;4.20;2.77;;;12.10;99.90;;;;;;5026895;28;20204;-22
2022/01/29 10:47:54;;;;;;;4.17;2.80;;;12.10;99.90;;;;;;5025113;28;20196;-22
2022/01/29 10:50:22;;;;;;;4.50;2.83;;;12.20;99.90;;;;;;5029783;28;20354;-23
2022/01/29 10:52:50;;;;;;;5.17;3.20;;;12.20;99.90;;;;;;5035625;28;20215;-23
2022/01/29 10:55:22;;;;;;;4.07;3.20;;;12.20;99.90;;;;;;5032707;28;20204;-23
2022/01/29 10:57:49;;;;;;;3.37;2.50;;;12.30;99.90;;;;;;5026706;28;20497;-22
2022/01/29 11:00:24;;;;;;;5.07;2.87;;;12.30;99.90;;;;;;5025611;28;20209;-22
2022/01/29 11:02:54;;;;;;;2.43;2.20;;;12.40;99.90;;;;;;5047894;28;20820;-22
2022/01/29 11:05:27;;;;;;;2.93;2.10;;;12.40;99.90;;;;;;5030777;28;20247;-22
2022/01/29 11:07:57;;;;;;;3.37;2.20;;;12.40;99.90;;;;;;5015786;28;20585;-22
2022/01/29 11:10:26;;;;;;;3.70;2.13;;;12.50;99.90;;;;;;5031605;28;20216;-22
2022/01/29 11:12:53;;;;;;;3.17;1.93;;;12.50;99.90;;;;;;5031391;28;20204;-22
2022/01/29 11:15:23;;;;;;;4.47;2.10;;;12.50;99.90;;;;;;5029761;28;20223;-23
2022/01/29 11:17:52;;;;;;;2.17;1.80;;;12.50;99.90;;;;;;4998142;28;20208;-22
2022/01/29 11:20:20;;;;;;;1.80;1.70;;;12.50;99.90;;;;;;5029888;28;20208;-23
2022/01/29 11:22:52;;;;;;;3.37;1.90;;;12.60;99.90;;;;;;5031385;28;20208;-22
2022/01/29 11:25:23;;;;;;;3.73;2.00;;;12.60;99.90;;;;;;5028236;28;20240;-23
2022/01/29 11:28:17;;;;;;;4.00;2.30;;;12.60;99.90;;;;;;5029587;28;20863;-22
2022/01/29 11:31:05;;;;;;;6.27;2.00;;;12.60;99.90;;;;;;5027269;28;20205;-22
2022/01/29 11:33:32;;;;;;;7.73;2.73;;;12.60;99.90;;;;;;5031670;28;20228;-22
2022/01/29 11:35:59;;;;;;;7.77;2.37;;;12.70;99.90;;;;;;5030489;28;20224;-23
2022/01/29 11:38:29;;;;;;;7.37;2.23;;;12.70;99.90;;;;;;5031215;28;20547;-22
2022/01/29 11:41:02;;;;;;;7.33;2.47;;;12.70;99.90;;;;;;5030475;28;20242;-22
2022/01/29 11:43:30;;;;;;;8.17;2.30;;;12.70;99.90;;;;;;5031226;28;20243;-23
2022/01/29 11:46:15;;;;;;;4.80;2.27;;;12.70;99.90;;;;;;5029597;28;20219;-24
2022/01/29 11:48:55;;;;;;;5.20;2.20;;;12.80;99.90;;;;;;5030642;28;20209;-23
2022/01/29 11:51:52;;;;;;;8.00;2.50;;;12.80;99.90;;;;;;5028962;28;20233;-23
2022/01/29 11:54:25;;;;;;;5.30;2.37;;;12.80;99.90;;;;;;5030995;28;20228;-22
2022/01/29 11:57:14;;;;;;;5.80;2.30;;;12.80;99.90;;;;;;5028792;28;20283;-22
2022/01/29 11:59:42;;;;;;;8.07;2.43;;;12.80;99.90;;;;;;5036837;28;20247;-23
2022/01/29 12:02:15;;;;;;;5.57;2.03;;;12.80;99.90;;;;;;5028763;28;20209;-24
2022/01/29 12:04:53;;;;;;;4.13;2.40;;;12.80;99.90;;;;;;5011370;28;20610;-25
2022/01/29 12:07:37;;;;;;;5.33;2.50;;;12.80;99.90;;;;;;5026560;28;20201;-24
2022/01/29 12:10:15;;;;;;;6.03;2.57;;;12.80;99.90;;;;;;5030496;28;20209;-24
2022/01/29 12:12:46;;;;;;;3.07;2.53;;;12.80;99.90;;;;;;5028816;28;20209;-24
2022/01/29 12:15:13;;;;;;;4.33;2.17;;;12.80;99.90;;;;;;5028570;28;20211;-24
2022/01/29 12:17:51;;;;;;;7.03;2.73;;;12.90;99.90;;;;;;5029964;28;20597;-25
2022/01/29 12:20:22;;;;;;;5.70;2.33;;;12.90;99.90;;;;;;5029185;28;20223;-24
2022/01/29 12:22:57;;;;;;;4.87;2.70;;;12.90;99.90;;;;;;5028496;28;20235;-24
2022/01/29 12:25:28;;;;;;;6.60;2.33;;;13.00;99.90;;;;;;5028807;28;20204;-24
2022/01/29 12:28:02;;;;;;;7.77;2.50;;;13.00;99.90;;;;;;5030023;28;20607;-24
2022/01/29 12:30:35;;;;;;;5.70;2.20;;;13.00;99.90;;;;;;5009066;28;20205;-24
2022/01/29 12:33:04;;;;;;;5.23;2.20;;;13.00;99.90;;;;;;5024964;28;20197;-24
2022/01/29 12:35:41;;;;;;;4.87;2.20;;;13.00;99.90;;;;;;5029887;28;20209;-24
2022/01/29 12:38:28;;;;;;;7.63;2.50;;;13.00;99.90;;;;;;5015930;28;20561;-24
2022/01/29 12:40:59;;;;;;;5.77;2.10;;;13.00;99.90;;;;;;5024916;28;20200;-24
2022/01/29 12:43:52;;;;;;;5.17;1.97;;;13.00;99.90;;;;;;5027411;28;20221;-24
2022/01/29 12:46:24;;;;;;;7.07;2.30;;;13.00;99.90;;;;;;5028855;28;20288;-24
2022/01/29 12:49:00;;;;;;;7.97;2.63;;;13.00;99.90;;;;;;5060985;28;20208;-24
2022/01/29 12:51:28;;;;;;;5.50;2.30;;;13.10;99.90;;;;;;5028214;28;20232;-24
2022/01/29 12:53:57;;;;;;;4.23;2.23;;;13.10;99.90;;;;;;5028116;28;20312;-24
2022/01/29 12:56:33;;;;;;;6.00;2.30;;;13.00;99.90;;;;;;5028821;28;20220;-24
2022/01/29 12:59:02;;;;;;;6.73;2.40;;;13.10;99.90;;;;;;5023554;28;20200;-24
2022/01/29 13:01:33;;;;;;;4.57;2.17;;;13.10;99.90;;;;;;5028273;28;20196;-24
2022/01/29 13:04:06;;;;;;;6.13;2.00;;;13.10;99.90;;;;;;5029505;28;20216;-24
2022/01/29 13:06:34;;;;;;;6.57;2.30;;;13.10;99.90;;;;;;5029049;28;20616;-24
2022/01/29 13:09:14;;;;;;;5.07;2.07;;;13.10;99.90;;;;;;5027559;28;20217;-24
2022/01/29 13:11:44;;;;;;;6.57;1.93;;;13.10;99.90;;;;;;5028681;28;20220;-24